Al Qabiyah, Saudi Arabia
Current Conditions -  °F | °C
As of 4:00 AM on Wednesday 26 Nov 2014 (Local Time) from OEMK Reporting Station
Clear Clear  
Wind Chill: 70°   Ceiling: Unl
Heat Index: 70°   Visibility: 6mi
Dew Point: 59°   Wind: 0mph
Humidity: 68%   Direction: NA
Pressure: 29.91"   Gusts: NA
Location:  21.67°N, 39.99°E
Report Text: OEMK 260100Z 00000KT CAVOK 21/15 Q1013
Loading
Personal Weather Stations






























Interactive Weather Map New forecast layout! Learn more

10-Day Weather Forecast

Advertisements
Track Severe Weather on mobile